createdAt,value
2023-04-16T00:01:33.542Z,100959.20
2023-04-16T00:06:38.806Z,100964.65
2023-04-16T00:11:44.294Z,100964.85
2023-04-16T00:16:49.651Z,100967.98
2023-04-16T00:21:55.474Z,100972.31
2023-04-16T00:27:01.573Z,100974.67
2023-04-16T00:32:07.629Z,100972.80
2023-04-16T00:37:12.918Z,100975.38
2023-04-16T00:42:18.381Z,100975.71
2023-04-16T00:47:24.139Z,100974.59
2023-04-16T00:52:31.382Z,100978.95
2023-04-16T00:57:36.628Z,100975.00
2023-04-16T01:02:42.475Z,100976.77
2023-04-16T01:07:47.902Z,100980.55
2023-04-16T01:12:53.335Z,100987.25
2023-04-16T01:17:58.671Z,100988.59
2023-04-16T01:23:04.172Z,100994.74
2023-04-16T01:28:09.526Z,101000.66
2023-04-16T01:33:15.802Z,101003.05
2023-04-16T01:38:21.070Z,101005.77
2023-04-16T01:43:26.586Z,101003.38
2023-04-16T01:48:31.945Z,101004.88
2023-04-16T01:53:37.432Z,101002.80
2023-04-16T01:58:42.918Z,101006.98
2023-04-16T02:03:48.864Z,101007.92
2023-04-16T02:08:54.379Z,101011.52
2023-04-16T02:13:59.709Z,101014.27
2023-04-16T02:19:04.972Z,101018.77
2023-04-16T02:24:10.431Z,101022.47
2023-04-16T02:29:16.537Z,101022.41
2023-04-16T02:34:21.948Z,101023.25
2023-04-16T02:39:27.312Z,101027.06
2023-04-16T02:44:32.670Z,101028.13
2023-04-16T02:49:37.967Z,101034.95
2023-04-16T02:54:43.481Z,101036.06
2023-04-16T02:59:48.903Z,101041.41
2023-04-16T03:04:54.436Z,101041.67
2023-04-16T03:09:59.732Z,101040.97
2023-04-16T03:15:06.273Z,101049.04
2023-04-16T03:20:12.421Z,101051.66
2023-04-16T03:25:17.968Z,101056.36
2023-04-16T03:30:23.224Z,101056.27
2023-04-16T03:35:28.661Z,101057.54
2023-04-16T03:40:33.949Z,101057.48
2023-04-16T03:45:45.344Z,101059.02
2023-04-16T03:50:50.860Z,101062.94
2023-04-16T03:55:56.297Z,101062.25
2023-04-16T04:01:01.588Z,101069.88
2023-04-16T04:06:09.658Z,101073.34
2023-04-16T04:11:15.009Z,101088.65
2023-04-16T04:16:22.898Z,101092.05
2023-04-16T04:21:28.964Z,101100.73
2023-04-16T04:26:34.446Z,101095.77
2023-04-16T04:31:39.818Z,101099.72
2023-04-16T04:36:45.203Z,101103.23
2023-04-16T04:41:50.622Z,101106.41
2023-04-16T04:46:56.342Z,101116.29
2023-04-16T04:52:02.078Z,101118.50
2023-04-16T04:57:07.419Z,101120.96
2023-04-16T05:02:13.171Z,101127.45
2023-04-16T05:07:18.628Z,101128.92
2023-04-16T05:12:24.068Z,101139.95
2023-04-16T05:17:29.716Z,101142.21
2023-04-16T05:22:35.225Z,101145.49
2023-04-16T05:27:40.659Z,101148.78
2023-04-16T05:32:46.128Z,101155.38
2023-04-16T05:37:51.539Z,101154.00
2023-04-16T05:42:56.905Z,101162.71
2023-04-16T05:48:02.450Z,101164.91
2023-04-16T05:53:09.048Z,101165.13
2023-04-16T05:58:14.436Z,101167.09
2023-04-16T06:03:19.831Z,101174.92
2023-04-16T06:08:26.218Z,101179.54
2023-04-16T06:13:31.510Z,101183.32
2023-04-16T06:18:36.846Z,101185.17
2023-04-16T06:23:42.111Z,101191.86
2023-04-16T06:28:47.468Z,101199.70
2023-04-16T06:33:52.736Z,101199.52
2023-04-16T06:38:58.109Z,101201.80
2023-04-16T06:44:03.430Z,101209.27
2023-04-16T06:49:09.023Z,101210.65
2023-04-16T06:54:14.621Z,101212.19
2023-04-16T06:59:19.938Z,101212.55
2023-04-16T07:04:26.007Z,101218.09
2023-04-16T07:09:31.481Z,101220.39
2023-04-16T07:14:36.922Z,101225.02
2023-04-16T07:19:42.233Z,101224.69
2023-04-16T07:24:47.470Z,101233.02
2023-04-16T07:29:52.852Z,101237.73
2023-04-16T07:34:58.149Z,101240.52
2023-04-16T07:40:05.247Z,101247.38
2023-04-16T07:45:12.593Z,101247.83
2023-04-16T07:50:19.466Z,101255.79
2023-04-16T07:55:25.033Z,101262.15
2023-04-16T08:00:30.851Z,101266.98
2023-04-16T08:05:36.106Z,101272.14
2023-04-16T08:10:41.445Z,101274.16
2023-04-16T08:15:46.836Z,101274.50
2023-04-16T08:20:52.350Z,101278.28
2023-04-16T08:25:57.678Z,101282.90
2023-04-16T08:31:03.257Z,101289.42
2023-04-16T08:36:09.058Z,101294.70
2023-04-16T08:41:15.798Z,101297.98
2023-04-16T08:46:24.996Z,101304.58
2023-04-16T08:51:34.216Z,101308.09
2023-04-16T08:56:43.047Z,101316.65
2023-04-16T09:01:49.430Z,101313.86
2023-04-16T09:06:56.610Z,101320.52
2023-04-16T09:12:02.470Z,101322.13
2023-04-16T09:17:08.997Z,101323.67
2023-04-16T09:22:14.411Z,101329.71
2023-04-16T09:27:19.851Z,101337.51
2023-04-16T09:32:28.707Z,101340.64
2023-04-16T09:37:34.052Z,101340.70
2023-04-16T09:42:39.378Z,101343.49
2023-04-16T09:47:45.896Z,101346.40
2023-04-16T09:52:51.903Z,101351.33
2023-04-16T09:58:02.293Z,101351.80
2023-04-16T10:03:07.932Z,101355.04
2023-04-16T10:08:17.267Z,101359.63
2023-04-16T10:13:22.718Z,101362.42
2023-04-16T10:18:29.307Z,101366.87
2023-04-16T10:23:35.538Z,101371.16
2023-04-16T10:28:41.942Z,101369.04
2023-04-16T10:33:47.930Z,101371.58
2023-04-16T10:38:57.546Z,101366.85
2023-04-16T10:44:10.086Z,101371.50
2023-04-16T10:49:17.894Z,101377.71
2023-04-16T10:54:26.466Z,101376.99
2023-04-16T10:59:34.969Z,101376.83
2023-04-16T11:04:42.806Z,101382.81
2023-04-16T11:09:52.378Z,101384.56
2023-04-16T11:15:00.944Z,101386.70
2023-04-16T11:20:19.089Z,101390.98
2023-04-16T11:25:26.994Z,101394.03
2023-04-16T11:30:34.234Z,101398.06
2023-04-16T11:35:39.950Z,101400.02
2023-04-16T11:40:45.331Z,101404.95
2023-04-16T11:45:59.880Z,101404.64
2023-04-16T11:51:05.446Z,101406.11
2023-04-16T11:56:10.768Z,101413.89
2023-04-16T12:01:21.641Z,101415.53
2023-04-16T12:06:27.261Z,101419.22
2023-04-16T12:11:42.591Z,101422.45
2023-04-16T12:16:47.942Z,101427.70
2023-04-16T12:21:54.872Z,101428.38
2023-04-16T12:27:03.297Z,101430.75
2023-04-16T12:32:23.454Z,101431.48
2023-04-16T12:37:28.762Z,101438.64
2023-04-16T12:42:37.699Z,101439.49
2023-04-16T12:47:43.431Z,101442.16
2023-04-16T12:52:48.955Z,101441.94
2023-04-16T12:57:54.639Z,101442.83
2023-04-16T13:03:00.414Z,101437.12
2023-04-16T13:08:06.218Z,101442.45
2023-04-16T13:13:11.522Z,101445.95
2023-04-16T13:18:16.850Z,101451.02
2023-04-16T13:23:22.293Z,101448.55
2023-04-16T13:28:27.716Z,101453.02
2023-04-16T13:33:33.330Z,101455.21
2023-04-16T13:38:39.493Z,101456.80
2023-04-16T13:43:44.895Z,101460.33
2023-04-16T13:48:50.687Z,101458.73
2023-04-16T13:53:56.573Z,101454.09
2023-04-16T13:59:01.990Z,101451.27
2023-04-16T14:04:08.442Z,101450.96
2023-04-16T14:09:13.694Z,101448.58
2023-04-16T14:14:19.161Z,101451.66
2023-04-16T14:19:24.679Z,101449.93
2023-04-16T14:24:30.048Z,101448.91
2023-04-16T14:29:36.485Z,101456.23
2023-04-16T14:34:41.861Z,101459.31
2023-04-16T14:39:47.367Z,101464.33
2023-04-16T14:44:52.633Z,101466.42
2023-04-16T14:50:00.582Z,101472.35
2023-04-16T14:55:06.884Z,101472.62
2023-04-16T15:00:17.165Z,101477.04
2023-04-16T15:05:22.437Z,101479.59
2023-04-16T15:10:27.904Z,101479.52
2023-04-16T15:15:33.505Z,101482.71
2023-04-16T15:20:38.901Z,101486.07
2023-04-16T15:25:44.221Z,101488.65
2023-04-16T15:30:49.932Z,101491.85
2023-04-16T15:35:55.224Z,101496.15
2023-04-16T15:41:01.462Z,101500.77
2023-04-16T15:46:08.648Z,101503.46
2023-04-16T15:51:14.300Z,101501.71
2023-04-16T15:56:19.620Z,101505.34
2023-04-16T16:01:25.177Z,101515.70
2023-04-16T16:06:31.572Z,101515.20
2023-04-16T16:11:38.376Z,101522.98
2023-04-16T16:16:43.906Z,101524.81
2023-04-16T16:21:49.499Z,101530.82
2023-04-16T16:26:54.786Z,101532.25
2023-04-16T16:32:00.402Z,101531.45
2023-04-16T16:37:06.396Z,101533.92
2023-04-16T16:42:11.970Z,101537.43
2023-04-16T16:47:17.270Z,101544.09
2023-04-16T16:52:25.054Z,101548.70
2023-04-16T16:57:30.365Z,101550.73
2023-04-16T17:02:35.779Z,101552.71
2023-04-16T17:07:41.448Z,101554.31
2023-04-16T17:12:47.325Z,101559.53
2023-04-16T17:17:52.896Z,101566.41
2023-04-16T17:22:59.434Z,101571.17
2023-04-16T17:28:05.151Z,101576.58
2023-04-16T17:33:10.494Z,101580.30
2023-04-16T17:38:16.123Z,101585.72
2023-04-16T17:43:21.422Z,101589.90
2023-04-16T17:48:26.898Z,101597.64
2023-04-16T17:53:32.354Z,101599.17
2023-04-16T17:58:37.790Z,101604.77
2023-04-16T18:03:44.393Z,101608.99
2023-04-16T18:08:49.853Z,101619.09
2023-04-16T18:13:55.331Z,101627.10
2023-04-16T18:19:00.616Z,101634.06
2023-04-16T18:24:06.800Z,101642.02
2023-04-16T18:29:13.229Z,101641.89
2023-04-16T18:34:18.981Z,101648.56
2023-04-16T18:39:24.422Z,101656.40
2023-04-16T18:44:29.806Z,101663.41
2023-04-16T18:49:35.329Z,101670.33
2023-04-16T18:54:43.844Z,101671.97
2023-04-16T18:59:49.503Z,101677.23
2023-04-16T19:04:54.934Z,101678.13
2023-04-16T19:10:02.480Z,101682.02
2023-04-16T19:15:09.253Z,101680.80
2023-04-16T19:20:15.333Z,101683.33
2023-04-16T19:25:20.791Z,101686.83
2023-04-16T19:30:26.445Z,101687.84
2023-04-16T19:35:31.820Z,101691.92
2023-04-16T19:40:37.890Z,101698.29
2023-04-16T19:45:46.854Z,101699.77
2023-04-16T19:50:52.520Z,101703.13
2023-04-16T19:55:57.844Z,101705.38
2023-04-16T20:01:07.954Z,101703.05
2023-04-16T20:06:13.485Z,101705.55
2023-04-16T20:11:18.883Z,101707.99
2023-04-16T20:16:24.828Z,101709.73
2023-04-16T20:21:31.658Z,101712.71
2023-04-16T20:26:36.988Z,101709.25
2023-04-16T20:31:44.317Z,101710.83
2023-04-16T20:36:49.557Z,101710.30
2023-04-16T20:41:57.520Z,101715.98
2023-04-16T20:47:02.837Z,101724.31
2023-04-16T20:52:08.246Z,101722.29
2023-04-16T20:57:13.554Z,101727.69
2023-04-16T21:02:20.678Z,101726.96
2023-04-16T21:07:26.229Z,101730.29
2023-04-16T21:12:31.488Z,101734.23
2023-04-16T21:17:37.139Z,101733.56
2023-04-16T21:22:42.529Z,101735.33
2023-04-16T21:27:47.793Z,101734.71
2023-04-16T21:32:53.434Z,101729.94
2023-04-16T21:37:58.700Z,101732.45
2023-04-16T21:43:04.194Z,101732.73
2023-04-16T21:48:09.593Z,101734.30
2023-04-16T21:53:15.100Z,101733.38
2023-04-16T21:58:20.419Z,101736.53
2023-04-16T22:03:27.601Z,101736.72
2023-04-16T22:08:33.162Z,101733.86
2023-04-16T22:13:42.059Z,101734.66
2023-04-16T22:18:47.927Z,101743.98
2023-04-16T22:23:53.362Z,101746.09
2023-04-16T22:28:58.610Z,101745.11
2023-04-16T22:34:03.944Z,101746.07
2023-04-16T22:39:09.184Z,101748.45
2023-04-16T22:44:14.862Z,101751.27
2023-04-16T22:49:20.262Z,101749.54
2023-04-16T22:54:29.445Z,101751.05
2023-04-16T22:59:34.742Z,101751.09
2023-04-16T23:04:40.066Z,101753.23
2023-04-16T23:09:45.414Z,101752.93
2023-04-16T23:14:51.307Z,101750.40
2023-04-16T23:19:56.784Z,101755.73
2023-04-16T23:25:02.125Z,101754.13
2023-04-16T23:30:10.590Z,101751.15
2023-04-16T23:35:22.645Z,101755.05
2023-04-16T23:40:26.558Z,101750.64
2023-04-16T23:45:31.934Z,101752.23
2023-04-16T23:50:37.220Z,101755.57
2023-04-16T23:55:42.694Z,101756.95
